Details From KBUR - BOB HOPE
To KWJF - General Wm J Fox Airfield
Flight Number -
Tags generated
Created
Modified
Stats Distance 33 nm / 62 km
Max Altitude 2,900 ft / 884 m
Waypoints 3
Social Downloads 0
Likes 0
Share VATSIM

Download

Looking for another format? Having issues loading an existing format? Contact us
Advertisement - Login to hide

Notes

Basic altitude profile: - Ascent Rate: 2500ft/min - Ascent Speed: 250kts - Cruise Altitude: 8000ft - Cruise Speed: 200kts - Descent Rate: 1500ft/min - Descent Speed: 250kts Options: - Use NATs: yes - Use PACOTS: yes - Use low airways: yes - Use high airways: yes

Route

KBUR BOGET KWJF

ID Type Via Altitude Latitude Longitude Leg Dist Tot Dist Heading (true) Name
O KBUR APT - 0 ft / 0 m 34.20048˚ -118.35877˚ - 0 nm - BOB HOPE
BOGET FIX - 2,900 ft / 884 m 34.51421˚ -118.25151˚ 19 nm 19 nm 16° / 16° -
O KWJF APT - 0 ft / 0 m 34.74105˚ -118.21864˚ 13 nm 33 nm 7° / 7° General Wm J Fox Airfield

Altitude Profile

Advertisement - Login to hide

KBUR

Details ICAO KBUR (BUR)
Name BOB HOPE
Region United States
Timezone America/Los_Angeles (UTC-7.0)
Stats Elevation 778 ft / 237 m (AMSL)
Location 34.200475° -118.358767°
Runways 2
Magnetic Variation 12.009° E

METAR

KBUR 211053Z 16004KT 10SM OVC019 15/12 A2984 RMK AO2 SLP095 T01500117

Decode

TAF

TAF KBUR 210533Z 2106/2206 16006KT P6SM BKN030 FM211000 14006KT P6SM OVC025 FM211900 19008KT P6SM OVC035 FM220400 16006KT P6SM OVC030

Decode

Departure Runways

ID Width Length Bearing (true) Bearing (mag) Surface Threshold Offset Overrun Length
08 151 ft / 46 m 5,835 ft / 1,779 m 90.92° 78.91° Asphalt 0 ft / 0 m 259 ft / 79 m
15 151 ft / 46 m 6,962 ft / 2,122 m 167.12° 155.11° Asphalt 909 ft / 277 m 0 ft / 0 m
26 151 ft / 46 m 5,835 ft / 1,779 m 270.93° 258.92° Asphalt 0 ft / 0 m 253 ft / 77 m
33 151 ft / 46 m 6,962 ft / 2,122 m 347.12° 335.11° Asphalt 351 ft / 107 m 0 ft / 0 m

KWJF

Details ICAO KWJF
Name General Wm J Fox Airfield
Region United States
Timezone America/Los_Angeles (UTC-7.0)
Stats Elevation 2,351 ft / 717 m (AMSL)
Location 34.741048° -118.218641°
Runways 1
Magnetic Variation 12.085° E

METAR

KWJF 211056Z AUTO 25017KT 10SM CLR 13/08 A2980 RMK AO2 SLP079 T01330083

Decode

TAF

KWJF 210533Z 2106/2206 24015KT P6SM OVC250 FM211200 24010KT P6SM OVC250 FM212000 24015G20KT P6SM OVC250 FM220200 24015KT P6SM OVC250

Decode

Destination Runways

ID Width Length Bearing (true) Bearing (mag) Surface Threshold Offset Overrun Length
06 151 ft / 46 m 7,188 ft / 2,191 m 71.98° 59.90° Asphalt 0 ft / 0 m 200 ft / 61 m
24 151 ft / 46 m 7,188 ft / 2,191 m 251.99° 239.91° Asphalt 0 ft / 0 m 200 ft / 61 m

Popular Alternatives